sensor_id;sensor_type;location;lat;lon;timestamp;pressure;altitude;pressure_sealevel;temperature;humidity
53546;BME280;39432;51.902;10.844;2023-07-13T00:01:42;99340.16;;;16.88;100.00
53546;BME280;39432;51.902;10.844;2023-07-13T00:04:13;99341.84;;;17.39;100.00
53546;BME280;39432;51.902;10.844;2023-07-13T00:06:43;99338.53;;;17.78;100.00
53546;BME280;39432;51.902;10.844;2023-07-13T00:09:15;99340.94;;;17.02;100.00
53546;BME280;39432;51.902;10.844;2023-07-13T00:11:49;99348.44;;;17.93;100.00
53546;BME280;39432;51.902;10.844;2023-07-13T00:14:22;99342.31;;;18.50;100.00
53546;BME280;39432;51.902;10.844;2023-07-13T00:16:53;99344.28;;;18.27;100.00
53546;BME280;39432;51.902;10.844;2023-07-13T00:19:23;99341.38;;;18.77;100.00
53546;BME280;39432;51.902;10.844;2023-07-13T00:21:52;99340.88;;;19.14;100.00
53546;BME280;39432;51.902;10.844;2023-07-13T00:24:22;99338.88;;;19.06;100.00
53546;BME280;39432;51.902;10.844;2023-07-13T00:26:54;99337.28;;;19.22;100.00
53546;BME280;39432;51.902;10.844;2023-07-13T00:29:27;99350.66;;;16.86;100.00
53546;BME280;39432;51.902;10.844;2023-07-13T00:31:57;99349.66;;;17.37;100.00
53546;BME280;39432;51.902;10.844;2023-07-13T00:34:27;99356.75;;;16.04;100.00
53546;BME280;39432;51.902;10.844;2023-07-13T00:36:57;99363.47;;;16.49;100.00
53546;BME280;39432;51.902;10.844;2023-07-13T00:39:27;99371.78;;;16.30;100.00
53546;BME280;39432;51.902;10.844;2023-07-13T00:41:57;99376.44;;;15.97;100.00
53546;BME280;39432;51.902;10.844;2023-07-13T00:44:29;99368.19;;;16.49;100.00
53546;BME280;39432;51.902;10.844;2023-07-13T00:47:00;99377.81;;;15.57;100.00
53546;BME280;39432;51.902;10.844;2023-07-13T00:49:31;99374.53;;;16.82;100.00
53546;BME280;39432;51.902;10.844;2023-07-13T00:52:06;99378.47;;;16.11;100.00
53546;BME280;39432;51.902;10.844;2023-07-13T00:54:40;99370.97;;;17.23;100.00
53546;BME280;39432;51.902;10.844;2023-07-13T00:57:13;99358.38;;;16.56;100.00
53546;BME280;39432;51.902;10.844;2023-07-13T00:59:50;99357.41;;;16.80;100.00
53546;BME280;39432;51.902;10.844;2023-07-13T01:02:21;99355.28;;;16.58;100.00
53546;BME280;39432;51.902;10.844;2023-07-13T01:04:52;99359.19;;;17.17;100.00
53546;BME280;39432;51.902;10.844;2023-07-13T01:07:22;99346.56;;;16.97;100.00
53546;BME280;39432;51.902;10.844;2023-07-13T01:09:52;99351.78;;;18.04;100.00
53546;BME280;39432;51.902;10.844;2023-07-13T01:12:22;99345.28;;;16.48;100.00
53546;BME280;39432;51.902;10.844;2023-07-13T01:15:00;99356.56;;;16.66;100.00
53546;BME280;39432;51.902;10.844;2023-07-13T01:17:30;99343.31;;;16.81;100.00
53546;BME280;39432;51.902;10.844;2023-07-13T01:20:01;99348.84;;;17.09;100.00
53546;BME280;39432;51.902;10.844;2023-07-13T01:22:34;99354.81;;;16.70;100.00
53546;BME280;39432;51.902;10.844;2023-07-13T01:25:05;99361.78;;;15.83;100.00
53546;BME280;39432;51.902;10.844;2023-07-13T01:27:35;99370.03;;;15.64;100.00
53546;BME280;39432;51.902;10.844;2023-07-13T01:30:10;99379.97;;;15.84;100.00
53546;BME280;39432;51.902;10.844;2023-07-13T01:32:40;99379.06;;;16.07;100.00
53546;BME280;39432;51.902;10.844;2023-07-13T01:35:09;99367.16;;;16.58;100.00
53546;BME280;39432;51.902;10.844;2023-07-13T01:37:42;99359.41;;;16.60;100.00
53546;BME280;39432;51.902;10.844;2023-07-13T01:40:12;99361.44;;;17.15;100.00
53546;BME280;39432;51.902;10.844;2023-07-13T01:42:42;99352.53;;;17.32;100.00
53546;BME280;39432;51.902;10.844;2023-07-13T01:45:12;99351.78;;;17.40;100.00
53546;BME280;39432;51.902;10.844;2023-07-13T01:47:42;99341.78;;;17.17;100.00
53546;BME280;39432;51.902;10.844;2023-07-13T01:50:12;99340.56;;;17.86;100.00
53546;BME280;39432;51.902;10.844;2023-07-13T01:52:44;99346.28;;;17.12;100.00
53546;BME280;39432;51.902;10.844;2023-07-13T01:55:14;99355.75;;;16.65;100.00
53546;BME280;39432;51.902;10.844;2023-07-13T01:57:44;99352.94;;;17.39;100.00
53546;BME280;39432;51.902;10.844;2023-07-13T02:00:15;99349.34;;;16.97;100.00
53546;BME280;39432;51.902;10.844;2023-07-13T02:02:48;99351.88;;;16.80;100.00
53546;BME280;39432;51.902;10.844;2023-07-13T02:05:18;99370.03;;;17.41;100.00
53546;BME280;39432;51.902;10.844;2023-07-13T02:07:50;99363.38;;;17.42;100.00
53546;BME280;39432;51.902;10.844;2023-07-13T02:10:20;99366.38;;;16.06;100.00
53546;BME280;39432;51.902;10.844;2023-07-13T02:12:50;99381.69;;;16.64;100.00
53546;BME280;39432;51.902;10.844;2023-07-13T02:15:20;99382.91;;;16.44;100.00
53546;BME280;39432;51.902;10.844;2023-07-13T02:17:51;99377.94;;;16.27;100.00
53546;BME280;39432;51.902;10.844;2023-07-13T02:20:21;99374.34;;;16.59;100.00
53546;BME280;39432;51.902;10.844;2023-07-13T02:22:53;99364.94;;;16.60;100.00
53546;BME280;39432;51.902;10.844;2023-07-13T02:25:23;99360.63;;;16.54;100.00
53546;BME280;39432;51.902;10.844;2023-07-13T02:27:53;99353.53;;;17.36;100.00
53546;BME280;39432;51.902;10.844;2023-07-13T02:30:23;99342.38;;;17.13;100.00
53546;BME280;39432;51.902;10.844;2023-07-13T02:32:53;99346.38;;;17.35;100.00
53546;BME280;39432;51.902;10.844;2023-07-13T02:35:23;99346.41;;;17.71;100.00
53546;BME280;39432;51.902;10.844;2023-07-13T02:37:56;99339.19;;;16.79;100.00
53546;BME280;39432;51.902;10.844;2023-07-13T02:40:26;99340.25;;;16.83;100.00
53546;BME280;39432;51.902;10.844;2023-07-13T02:42:56;99350.78;;;16.16;100.00
53546;BME280;39432;51.902;10.844;2023-07-13T02:45:26;99352.25;;;16.27;100.00
53546;BME280;39432;51.902;10.844;2023-07-13T02:47:56;99342.59;;;16.43;100.00
53546;BME280;39432;51.902;10.844;2023-07-13T02:50:25;99353.34;;;16.91;100.00
53546;BME280;39432;51.902;10.844;2023-07-13T02:52:58;99352.19;;;16.78;100.00
53546;BME280;39432;51.902;10.844;2023-07-13T02:55:28;99344.31;;;16.06;100.00
53546;BME280;39432;51.902;10.844;2023-07-13T02:57:57;99360.44;;;15.99;100.00
53546;BME280;39432;51.902;10.844;2023-07-13T03:00:28;99363.28;;;15.94;100.00
53546;BME280;39432;51.902;10.844;2023-07-13T03:02:58;99358.28;;;15.77;100.00
53546;BME280;39432;51.902;10.844;2023-07-13T03:05:28;99363.84;;;15.91;100.00
53546;BME280;39432;51.902;10.844;2023-07-13T03:08:01;99367.28;;;15.40;100.00
53546;BME280;39432;51.902;10.844;2023-07-13T03:10:31;99373.19;;;15.52;100.00
53546;BME280;39432;51.902;10.844;2023-07-13T03:13:02;99365.41;;;16.16;100.00
53546;BME280;39432;51.902;10.844;2023-07-13T03:15:32;99361.19;;;16.38;100.00
53546;BME280;39432;51.902;10.844;2023-07-13T03:18:03;99360.00;;;16.25;100.00
53546;BME280;39432;51.902;10.844;2023-07-13T03:20:33;99347.91;;;16.53;100.00
53546;BME280;39432;51.902;10.844;2023-07-13T03:23:05;99352.09;;;15.67;100.00
53546;BME280;39432;51.902;10.844;2023-07-13T03:25:35;99348.78;;;16.68;100.00
53546;BME280;39432;51.902;10.844;2023-07-13T03:28:05;99346.91;;;17.37;100.00
53546;BME280;39432;51.902;10.844;2023-07-13T03:30:35;99343.59;;;16.33;100.00
53546;BME280;39432;51.902;10.844;2023-07-13T03:33:05;99344.81;;;16.41;100.00
53546;BME280;39432;51.902;10.844;2023-07-13T03:35:35;99352.53;;;17.04;100.00
53546;BME280;39432;51.902;10.844;2023-07-13T03:38:12;99347.84;;;16.26;100.00
53546;BME280;39432;51.902;10.844;2023-07-13T03:40:42;99345.88;;;16.45;100.00
53546;BME280;39432;51.902;10.844;2023-07-13T03:43:12;99344.09;;;16.36;100.00
53546;BME280;39432;51.902;10.844;2023-07-13T03:45:41;99346.09;;;16.63;100.00
53546;BME280;39432;51.902;10.844;2023-07-13T03:48:11;99350.78;;;16.95;100.00
53546;BME280;39432;51.902;10.844;2023-07-13T03:50:41;99350.09;;;16.56;100.00
53546;BME280;39432;51.902;10.844;2023-07-13T03:53:13;99359.66;;;17.47;100.00
53546;BME280;39432;51.902;10.844;2023-07-13T03:55:43;99352.94;;;17.11;100.00
53546;BME280;39432;51.902;10.844;2023-07-13T03:58:26;99368.91;;;17.01;100.00
53546;BME280;39432;51.902;10.844;2023-07-13T04:01:05;99370.66;;;17.10;100.00
53546;BME280;39432;51.902;10.844;2023-07-13T04:03:35;99372.38;;;17.75;100.00
53546;BME280;39432;51.902;10.844;2023-07-13T04:06:08;99369.44;;;17.17;100.00
53546;BME280;39432;51.902;10.844;2023-07-13T04:08:47;99370.94;;;17.78;100.00
53546;BME280;39432;51.902;10.844;2023-07-13T04:11:20;99367.06;;;17.37;100.00
53546;BME280;39432;51.902;10.844;2023-07-13T04:13:51;99379.16;;;16.68;100.00
53546;BME280;39432;51.902;10.844;2023-07-13T04:16:21;99385.19;;;16.37;100.00
53546;BME280;39432;51.902;10.844;2023-07-13T04:18:51;99392.81;;;16.45;100.00
53546;BME280;39432;51.902;10.844;2023-07-13T04:21:28;99386.31;;;16.36;100.00
53546;BME280;39432;51.902;10.844;2023-07-13T04:24:01;99395.38;;;16.23;100.00
53546;BME280;39432;51.902;10.844;2023-07-13T04:26:31;99401.00;;;16.18;100.00
53546;BME280;39432;51.902;10.844;2023-07-13T04:29:03;99398.81;;;16.66;100.00
53546;BME280;39432;51.902;10.844;2023-07-13T04:31:33;99398.22;;;17.43;100.00
53546;BME280;39432;51.902;10.844;2023-07-13T04:34:03;99398.06;;;18.26;100.00
53546;BME280;39432;51.902;10.844;2023-07-13T04:36:33;99391.88;;;18.51;100.00
53546;BME280;39432;51.902;10.844;2023-07-13T04:39:07;99396.63;;;19.04;100.00
53546;BME280;39432;51.902;10.844;2023-07-13T04:41:37;99396.22;;;17.57;100.00
53546;BME280;39432;51.902;10.844;2023-07-13T04:44:07;99406.59;;;17.38;100.00
53546;BME280;39432;51.902;10.844;2023-07-13T04:46:37;99402.44;;;18.04;100.00
53546;BME280;39432;51.902;10.844;2023-07-13T04:49:07;99408.63;;;17.87;100.00
53546;BME280;39432;51.902;10.844;2023-07-13T04:51:37;99404.50;;;18.57;100.00
53546;BME280;39432;51.902;10.844;2023-07-13T04:54:09;99407.41;;;17.80;100.00
53546;BME280;39432;51.902;10.844;2023-07-13T04:56:39;99400.44;;;17.41;100.00
53546;BME280;39432;51.902;10.844;2023-07-13T04:59:09;99410.88;;;17.58;100.00
53546;BME280;39432;51.902;10.844;2023-07-13T05:01:39;99417.28;;;17.31;100.00
53546;BME280;39432;51.902;10.844;2023-07-13T05:04:09;99416.06;;;18.37;100.00
53546;BME280;39432;51.902;10.844;2023-07-13T05:06:39;99410.91;;;18.89;100.00
53546;BME280;39432;51.902;10.844;2023-07-13T05:09:11;99396.31;;;19.54;100.00
53546;BME280;39432;51.902;10.844;2023-07-13T05:11:41;99406.41;;;20.16;100.00
53546;BME280;39432;51.902;10.844;2023-07-13T05:14:11;99401.44;;;20.91;100.00
53546;BME280;39432;51.902;10.844;2023-07-13T05:16:43;99397.22;;;20.85;100.00
53546;BME280;39432;51.902;10.844;2023-07-13T05:19:13;99389.47;;;21.46;100.00
53546;BME280;39432;51.902;10.844;2023-07-13T05:21:43;99400.34;;;21.39;100.00
53546;BME280;39432;51.902;10.844;2023-07-13T05:24:15;99396.81;;;21.12;100.00
53546;BME280;39432;51.902;10.844;2023-07-13T05:26:51;99391.94;;;22.60;100.00
53546;BME280;39432;51.902;10.844;2023-07-13T05:29:22;99399.91;;;22.50;99.45
53546;BME280;39432;51.902;10.844;2023-07-13T05:31:52;99395.53;;;23.64;93.25
53546;BME280;39432;51.902;10.844;2023-07-13T05:34:22;99394.22;;;24.38;85.99
53546;BME280;39432;51.902;10.844;2023-07-13T05:36:53;99400.97;;;23.48;85.76
53546;BME280;39432;51.902;10.844;2023-07-13T05:39:25;99394.88;;;23.09;87.57
53546;BME280;39432;51.902;10.844;2023-07-13T05:41:56;99404.09;;;22.56;88.51
53546;BME280;39432;51.902;10.844;2023-07-13T05:44:25;99400.81;;;21.41;92.86
53546;BME280;39432;51.902;10.844;2023-07-13T05:46:55;99399.00;;;21.45;94.57
53546;BME280;39432;51.902;10.844;2023-07-13T05:49:25;99396.56;;;22.90;91.69
53546;BME280;39432;51.902;10.844;2023-07-13T05:51:57;99393.53;;;23.64;86.17
53546;BME280;39432;51.902;10.844;2023-07-13T05:54:29;99384.88;;;23.94;81.28
53546;BME280;39432;51.902;10.844;2023-07-13T05:56:59;99388.97;;;23.72;80.76
53546;BME280;39432;51.902;10.844;2023-07-13T05:59:29;99387.22;;;25.04;77.12
53546;BME280;39432;51.902;10.844;2023-07-13T06:01:59;99390.50;;;24.34;76.35
53546;BME280;39432;51.902;10.844;2023-07-13T06:04:28;99394.97;;;24.11;78.87
53546;BME280;39432;51.902;10.844;2023-07-13T06:06:58;99392.22;;;23.99;77.33
53546;BME280;39432;51.902;10.844;2023-07-13T06:09:31;99390.59;;;23.73;77.46
53546;BME280;39432;51.902;10.844;2023-07-13T06:12:01;99392.25;;;24.27;77.15
53546;BME280;39432;51.902;10.844;2023-07-13T06:14:31;99385.63;;;24.19;74.51
53546;BME280;39432;51.902;10.844;2023-07-13T06:17:00;99393.81;;;24.12;74.25
53546;BME280;39432;51.902;10.844;2023-07-13T06:19:30;99389.44;;;23.86;75.61
53546;BME280;39432;51.902;10.844;2023-07-13T06:22:00;99395.75;;;23.71;78.85
53546;BME280;39432;51.902;10.844;2023-07-13T06:24:32;99389.78;;;24.37;74.49
53546;BME280;39432;51.902;10.844;2023-07-13T06:27:03;99396.78;;;23.91;75.46
53546;BME280;39432;51.902;10.844;2023-07-13T06:29:33;99395.00;;;23.62;77.40
53546;BME280;39432;51.902;10.844;2023-07-13T06:32:03;99402.28;;;23.63;76.55
53546;BME280;39432;51.902;10.844;2023-07-13T06:34:33;99404.06;;;23.22;78.68
53546;BME280;39432;51.902;10.844;2023-07-13T06:37:03;99406.19;;;23.62;79.18
53546;BME280;39432;51.902;10.844;2023-07-13T06:39:36;99408.00;;;22.97;78.66
53546;BME280;39432;51.902;10.844;2023-07-13T06:42:06;99407.81;;;22.27;82.89
53546;BME280;39432;51.902;10.844;2023-07-13T06:44:40;99409.34;;;22.91;80.98
53546;BME280;39432;51.902;10.844;2023-07-13T06:47:10;99410.00;;;21.92;84.06
53546;BME280;39432;51.902;10.844;2023-07-13T06:49:40;99416.97;;;22.69;86.59
53546;BME280;39432;51.902;10.844;2023-07-13T06:52:12;99415.88;;;22.95;83.66
53546;BME280;39432;51.902;10.844;2023-07-13T06:54:45;99424.09;;;23.24;80.71
53546;BME280;39432;51.902;10.844;2023-07-13T06:57:15;99421.09;;;23.54;78.70
53546;BME280;39432;51.902;10.844;2023-07-13T06:59:45;99411.41;;;24.81;74.95
53546;BME280;39432;51.902;10.844;2023-07-13T07:02:15;99416.19;;;24.12;73.53
53546;BME280;39432;51.902;10.844;2023-07-13T07:04:45;99415.84;;;24.13;74.48
53546;BME280;39432;51.902;10.844;2023-07-13T07:07:15;99416.78;;;23.56;74.69
53546;BME280;39432;51.902;10.844;2023-07-13T07:09:47;99421.09;;;23.78;76.14
53546;BME280;39432;51.902;10.844;2023-07-13T07:12:17;99416.06;;;24.08;74.61
53546;BME280;39432;51.902;10.844;2023-07-13T07:14:47;99429.97;;;23.80;75.25
53546;BME280;39432;51.902;10.844;2023-07-13T07:17:17;99429.13;;;23.55;75.62
53546;BME280;39432;51.902;10.844;2023-07-13T07:19:50;99418.88;;;23.84;76.02
53546;BME280;39432;51.902;10.844;2023-07-13T07:22:20;99416.41;;;24.19;71.49
53546;BME280;39432;51.902;10.844;2023-07-13T07:24:56;99426.50;;;24.92;69.43
53546;BME280;39432;51.902;10.844;2023-07-13T07:27:27;99420.56;;;24.65;66.41
53546;BME280;39432;51.902;10.844;2023-07-13T07:30:00;99425.31;;;25.21;64.93
53546;BME280;39432;51.902;10.844;2023-07-13T07:32:33;99422.19;;;24.94;66.10
53546;BME280;39432;51.902;10.844;2023-07-13T07:35:07;99421.50;;;24.69;65.49
53546;BME280;39432;51.902;10.844;2023-07-13T07:37:37;99423.84;;;24.67;65.14
53546;BME280;39432;51.902;10.844;2023-07-13T07:40:12;99426.78;;;25.46;66.80
53546;BME280;39432;51.902;10.844;2023-07-13T07:42:45;99422.28;;;24.98;68.49
53546;BME280;39432;51.902;10.844;2023-07-13T07:45:15;99431.94;;;24.44;72.12
53546;BME280;39432;51.902;10.844;2023-07-13T07:47:45;99429.00;;;24.13;72.29
53546;BME280;39432;51.902;10.844;2023-07-13T07:50:15;99435.91;;;23.66;73.40
53546;BME280;39432;51.902;10.844;2023-07-13T07:52:46;99430.69;;;24.30;73.83
53546;BME280;39432;51.902;10.844;2023-07-13T07:55:18;99431.03;;;24.96;70.84
53546;BME280;39432;51.902;10.844;2023-07-13T07:57:51;99434.97;;;24.80;69.81
53546;BME280;39432;51.902;10.844;2023-07-13T08:00:24;99432.88;;;24.77;73.39
53546;BME280;39432;51.902;10.844;2023-07-13T08:03:16;99438.97;;;24.26;69.89
53546;BME280;39432;51.902;10.844;2023-07-13T08:05:48;99434.56;;;24.25;68.04
53546;BME280;39432;51.902;10.844;2023-07-13T08:08:24;99433.22;;;24.07;69.04
53546;BME280;39432;51.902;10.844;2023-07-13T08:10:57;99429.69;;;24.10;71.12
53546;BME280;39432;51.902;10.844;2023-07-13T08:13:47;99438.47;;;23.72;72.52
53546;BME280;39432;51.902;10.844;2023-07-13T08:16:20;99443.69;;;23.73;71.14
53546;BME280;39432;51.902;10.844;2023-07-13T08:18:51;99439.53;;;24.32;69.08
53546;BME280;39432;51.902;10.844;2023-07-13T08:21:20;99443.06;;;24.29;69.62
53546;BME280;39432;51.902;10.844;2023-07-13T08:23:50;99441.16;;;23.80;69.10
53546;BME280;39432;51.902;10.844;2023-07-13T08:26:23;99440.34;;;24.32;64.72
53546;BME280;39432;51.902;10.844;2023-07-13T08:28:53;99433.00;;;24.80;62.14
53546;BME280;39432;51.902;10.844;2023-07-13T08:31:23;99441.75;;;25.07;63.36
53546;BME280;39432;51.902;10.844;2023-07-13T08:33:53;99444.88;;;24.77;59.96
53546;BME280;39432;51.902;10.844;2023-07-13T08:36:22;99452.72;;;24.43;61.69
53546;BME280;39432;51.902;10.844;2023-07-13T08:38:52;99451.06;;;23.90;65.78
53546;BME280;39432;51.902;10.844;2023-07-13T08:41:25;99449.41;;;24.01;69.19
53546;BME280;39432;51.902;10.844;2023-07-13T08:43:58;99443.25;;;24.76;63.45
53546;BME280;39432;51.902;10.844;2023-07-13T08:46:34;99451.41;;;24.53;62.61
53546;BME280;39432;51.902;10.844;2023-07-13T08:49:09;99440.00;;;25.02;63.63
53546;BME280;39432;51.902;10.844;2023-07-13T08:51:43;99444.31;;;24.31;64.22
53546;BME280;39432;51.902;10.844;2023-07-13T08:54:20;99461.38;;;24.66;62.16
53546;BME280;39432;51.902;10.844;2023-07-13T08:56:55;99461.41;;;23.65;63.67
53546;BME280;39432;51.902;10.844;2023-07-13T08:59:28;99451.50;;;23.67;67.14
53546;BME280;39432;51.902;10.844;2023-07-13T09:02:15;99456.84;;;22.49;69.95
53546;BME280;39432;51.902;10.844;2023-07-13T09:04:51;99469.28;;;22.51;71.93
53546;BME280;39432;51.902;10.844;2023-07-13T09:07:32;99448.44;;;23.36;69.18
53546;BME280;39432;51.902;10.844;2023-07-13T09:10:13;99453.59;;;23.01;67.85
53546;BME280;39432;51.902;10.844;2023-07-13T09:12:56;99447.72;;;23.51;68.33
53546;BME280;39432;51.902;10.844;2023-07-13T09:15:34;99450.22;;;23.65;67.75
53546;BME280;39432;51.902;10.844;2023-07-13T09:18:09;99450.72;;;23.22;67.62
53546;BME280;39432;51.902;10.844;2023-07-13T09:20:43;99453.25;;;23.72;66.56
53546;BME280;39432;51.902;10.844;2023-07-13T09:23:18;99456.47;;;23.62;66.73
53546;BME280;39432;51.902;10.844;2023-07-13T09:25:51;99460.00;;;23.71;66.93
53546;BME280;39432;51.902;10.844;2023-07-13T09:28:27;99457.19;;;23.47;66.03
53546;BME280;39432;51.902;10.844;2023-07-13T09:31:03;99463.97;;;23.70;65.48
53546;BME280;39432;51.902;10.844;2023-07-13T09:33:34;99459.63;;;23.48;66.12
53546;BME280;39432;51.902;10.844;2023-07-13T09:36:17;99455.06;;;23.44;66.08
53546;BME280;39432;51.902;10.844;2023-07-13T09:38:49;99456.53;;;23.74;66.02
53546;BME280;39432;51.902;10.844;2023-07-13T09:41:25;99457.00;;;23.64;65.26
53546;BME280;39432;51.902;10.844;2023-07-13T09:44:07;99453.72;;;23.74;65.81
53546;BME280;39432;51.902;10.844;2023-07-13T09:46:43;99459.75;;;23.88;64.04
53546;BME280;39432;51.902;10.844;2023-07-13T09:49:14;99468.75;;;23.70;65.15
53546;BME280;39432;51.902;10.844;2023-07-13T09:51:44;99455.66;;;23.61;65.06
53546;BME280;39432;51.902;10.844;2023-07-13T09:54:23;99465.53;;;23.34;65.99
53546;BME280;39432;51.902;10.844;2023-07-13T09:56:54;99454.69;;;24.31;64.83
53546;BME280;39432;51.902;10.844;2023-07-13T09:59:32;99462.06;;;23.62;64.12
53546;BME280;39432;51.902;10.844;2023-07-13T10:02:22;99466.44;;;23.26;67.82
53546;BME280;39432;51.902;10.844;2023-07-13T10:04:56;99469.56;;;23.70;67.74
53546;BME280;39432;51.902;10.844;2023-07-13T10:07:27;99470.06;;;23.39;65.72
53546;BME280;39432;51.902;10.844;2023-07-13T10:09:58;99480.69;;;23.00;67.27
53546;BME280;39432;51.902;10.844;2023-07-13T10:12:36;99472.94;;;23.18;68.76
53546;BME280;39432;51.902;10.844;2023-07-13T10:15:12;99477.50;;;23.68;66.41
53546;BME280;39432;51.902;10.844;2023-07-13T10:17:51;99474.44;;;23.98;64.80
53546;BME280;39432;51.902;10.844;2023-07-13T10:20:22;99476.84;;;23.50;64.23
53546;BME280;39432;51.902;10.844;2023-07-13T10:22:55;99483.41;;;23.21;64.80
53546;BME280;39432;51.902;10.844;2023-07-13T10:25:31;99472.22;;;23.09;67.68
53546;BME280;39432;51.902;10.844;2023-07-13T10:28:09;99480.13;;;23.07;67.75
53546;BME280;39432;51.902;10.844;2023-07-13T10:30:45;99476.50;;;23.52;66.28
53546;BME280;39432;51.902;10.844;2023-07-13T10:33:17;99476.44;;;23.15;65.28
53546;BME280;39432;51.902;10.844;2023-07-13T10:35:48;99488.69;;;23.02;66.28
53546;BME280;39432;51.902;10.844;2023-07-13T10:38:22;99483.41;;;23.79;64.61
53546;BME280;39432;51.902;10.844;2023-07-13T10:41:07;99475.13;;;23.82;64.23
53546;BME280;39432;51.902;10.844;2023-07-13T10:43:41;99477.94;;;23.82;63.32
53546;BME280;39432;51.902;10.844;2023-07-13T10:46:17;99482.38;;;23.96;64.77
53546;BME280;39432;51.902;10.844;2023-07-13T10:48:50;99474.19;;;24.39;65.80
53546;BME280;39432;51.902;10.844;2023-07-13T10:51:22;99485.84;;;24.05;62.60
53546;BME280;39432;51.902;10.844;2023-07-13T10:54:11;99479.09;;;23.93;63.84
53546;BME280;39432;51.902;10.844;2023-07-13T10:56:52;99480.28;;;23.68;66.25
53546;BME280;39432;51.902;10.844;2023-07-13T10:59:27;99484.53;;;23.53;64.52
53546;BME280;39432;51.902;10.844;2023-07-13T11:02:21;99479.75;;;23.42;65.11
53546;BME280;39432;51.902;10.844;2023-07-13T11:04:54;99485.41;;;23.21;65.63
53546;BME280;39432;51.902;10.844;2023-07-13T11:07:28;99489.72;;;23.30;66.40
53546;BME280;39432;51.902;10.844;2023-07-13T11:10:02;99482.63;;;23.90;65.59
53546;BME280;39432;51.902;10.844;2023-07-13T11:12:49;99478.88;;;23.74;65.77
53546;BME280;39432;51.902;10.844;2023-07-13T11:15:33;99489.13;;;23.70;64.89
53546;BME280;39432;51.902;10.844;2023-07-13T11:18:24;99488.66;;;23.80;65.08
53546;BME280;39432;51.902;10.844;2023-07-13T11:21:12;99486.44;;;23.98;64.54
53546;BME280;39432;51.902;10.844;2023-07-13T11:24:02;99494.50;;;23.30;63.81
53546;BME280;39432;51.902;10.844;2023-07-13T11:26:40;99483.00;;;23.44;63.10
53546;BME280;39432;51.902;10.844;2023-07-13T11:29:25;99480.50;;;24.00;62.27
53546;BME280;39432;51.902;10.844;2023-07-13T11:31:57;99481.41;;;23.67;62.56
53546;BME280;39432;51.902;10.844;2023-07-13T11:34:34;99487.13;;;23.95;63.16
53546;BME280;39432;51.902;10.844;2023-07-13T11:37:12;99486.72;;;23.35;64.71
53546;BME280;39432;51.902;10.844;2023-07-13T11:39:46;99495.94;;;23.48;64.32
53546;BME280;39432;51.902;10.844;2023-07-13T11:42:19;99487.94;;;23.71;64.37
53546;BME280;39432;51.902;10.844;2023-07-13T11:44:52;99478.13;;;23.40;63.94
53546;BME280;39432;51.902;10.844;2023-07-13T11:47:40;99484.56;;;24.14;61.83
53546;BME280;39432;51.902;10.844;2023-07-13T11:50:20;99483.28;;;24.24;60.03
53546;BME280;39432;51.902;10.844;2023-07-13T11:52:52;99489.09;;;23.95;60.23
53546;BME280;39432;51.902;10.844;2023-07-13T11:55:23;99473.91;;;24.32;59.58
53546;BME280;39432;51.902;10.844;2023-07-13T11:57:58;99461.66;;;24.49;59.52
53546;BME280;39432;51.902;10.844;2023-07-13T12:00:30;99479.44;;;24.69;60.05
53546;BME280;39432;51.902;10.844;2023-07-13T12:03:05;99485.38;;;23.78;59.99
53546;BME280;39432;51.902;10.844;2023-07-13T12:05:55;99492.69;;;23.58;60.65
53546;BME280;39432;51.902;10.844;2023-07-13T12:08:25;99487.81;;;23.67;61.96
53546;BME280;39432;51.902;10.844;2023-07-13T12:11:04;99496.09;;;23.76;61.01
53546;BME280;39432;51.902;10.844;2023-07-13T12:13:36;99487.91;;;23.59;62.33
53546;BME280;39432;51.902;10.844;2023-07-13T12:16:14;99489.84;;;23.79;63.31
53546;BME280;39432;51.902;10.844;2023-07-13T12:18:45;99493.22;;;23.85;63.28
53546;BME280;39432;51.902;10.844;2023-07-13T12:21:32;99482.56;;;23.54;60.57
53546;BME280;39432;51.902;10.844;2023-07-13T12:24:03;99488.66;;;23.80;61.25
53546;BME280;39432;51.902;10.844;2023-07-13T12:26:34;99479.41;;;24.29;59.17
53546;BME280;39432;51.902;10.844;2023-07-13T12:29:05;99472.03;;;25.05;58.15
53546;BME280;39432;51.902;10.844;2023-07-13T12:31:40;99474.91;;;25.20;57.54
53546;BME280;39432;51.902;10.844;2023-07-13T12:34:13;99469.31;;;24.92;57.38
53546;BME280;39432;51.902;10.844;2023-07-13T12:36:49;99471.47;;;25.27;58.40
53546;BME280;39432;51.902;10.844;2023-07-13T12:39:22;99471.22;;;25.16;55.80
53546;BME280;39432;51.902;10.844;2023-07-13T12:41:53;99477.25;;;24.90;55.96
53546;BME280;39432;51.902;10.844;2023-07-13T12:44:30;99483.06;;;24.97;57.79
53546;BME280;39432;51.902;10.844;2023-07-13T12:47:04;99478.38;;;24.74;58.97
53546;BME280;39432;51.902;10.844;2023-07-13T12:49:41;99476.25;;;24.30;57.74
53546;BME280;39432;51.902;10.844;2023-07-13T12:52:20;99476.00;;;24.48;59.10
53546;BME280;39432;51.902;10.844;2023-07-13T12:54:54;99471.88;;;24.69;57.38
53546;BME280;39432;51.902;10.844;2023-07-13T12:57:38;99476.53;;;25.21;57.22
53546;BME280;39432;51.902;10.844;2023-07-13T13:00:22;99473.91;;;25.13;56.87
53546;BME280;39432;51.902;10.844;2023-07-13T13:02:55;99469.50;;;25.00;56.00
53546;BME280;39432;51.902;10.844;2023-07-13T13:05:47;99473.28;;;24.91;54.66
53546;BME280;39432;51.902;10.844;2023-07-13T13:08:20;99479.59;;;24.88;55.79
53546;BME280;39432;51.902;10.844;2023-07-13T13:10:50;99480.00;;;25.03;55.14
53546;BME280;39432;51.902;10.844;2023-07-13T13:13:20;99467.97;;;25.30;54.91
53546;BME280;39432;51.902;10.844;2023-07-13T13:15:50;99466.63;;;25.40;53.35